Time;durP1;ratioP1;P1;durP2;ratioP2;P2;SDS_P1;SDS_P2;PMS_P1;PMS_P2;Temp;Humidity;BMP_temperature;BMP_pressure;BME280_temperature;BME280_humidity;BME280_pressure;Samples;Min_cycle;Max_cycle;Signal;HPM_P1;HPM_P2
2024/01/20 00:01:56;;;;;;;29.67;13.77;;;;;;;;;;6273004;22;19999;-81
2024/01/20 00:04:41;;;;;;;24.50;14.00;;;;;;;;;;6270038;22;20043;-80
2024/01/20 00:07:27;;;;;;;23.75;12.55;;;;;;;;;;6272100;22;19996;-81
2024/01/20 00:10:12;;;;;;;22.13;14.18;;;;;;;;;;6272731;22;20003;-80
2024/01/20 00:12:57;;;;;;;23.13;14.40;;;;;;;;;;6272312;22;20015;-80
2024/01/20 00:15:42;;;;;;;24.15;12.88;;;;;;;;;;6269821;22;20053;-82
2024/01/20 00:18:27;;;;;;;22.30;11.43;;;;;;;;;;6265147;22;20052;-81
2024/01/20 00:21:14;;;;;;;18.90;11.23;;;;;;;;;;6266513;22;20003;-80
2024/01/20 00:23:59;;;;;;;17.75;10.43;;;;;;;;;;6266553;22;19995;-80
2024/01/20 00:26:44;;;;;;;19.33;11.38;;;;;;;;;;6268569;22;20074;-80
2024/01/20 00:29:29;;;;;;;24.27;12.93;;;;;;;;;;6269848;22;20336;-79
2024/01/20 00:32:15;;;;;;;21.27;11.80;;;;;;;;;;6250041;22;20324;-79
2024/01/20 00:35:00;;;;;;;22.58;12.10;;;;;;;;;;6272206;22;19991;-80
2024/01/20 00:37:46;;;;;;;21.50;11.60;;;;;;;;;;6283871;22;20001;-79
2024/01/20 00:40:31;;;;;;;19.55;11.43;;;;;;;;;;6278977;22;20060;-78
2024/01/20 00:43:16;;;;;;;20.75;11.77;;;;;;;;;;6281574;22;19999;-79
2024/01/20 00:46:01;;;;;;;23.85;13.13;;;;;;;;;;6282057;22;20010;-79
2024/01/20 00:48:47;;;;;;;22.98;13.60;;;;;;;;;;6284387;22;20437;-78
2024/01/20 00:51:32;;;;;;;23.63;13.88;;;;;;;;;;6283459;22;19999;-79
2024/01/20 00:54:17;;;;;;;23.92;12.35;;;;;;;;;;6270898;22;19999;-80
2024/01/20 00:57:03;;;;;;;26.75;14.48;;;;;;;;;;6267060;22;20000;-79
2024/01/20 00:59:48;;;;;;;20.60;12.70;;;;;;;;;;6266070;22;20530;-80
2024/01/20 01:02:33;;;;;;;23.75;13.52;;;;;;;;;;6266332;22;19999;-79
2024/01/20 01:05:18;;;;;;;23.42;14.27;;;;;;;;;;6264311;22;19999;-79
2024/01/20 01:08:04;;;;;;;26.88;12.93;;;;;;;;;;6272645;22;20011;-79
2024/01/20 01:10:49;;;;;;;27.40;13.52;;;;;;;;;;6250992;22;20305;-78
2024/01/20 01:13:36;;;;;;;22.38;13.02;;;;;;;;;;6269295;22;20058;-78
2024/01/20 01:16:22;;;;;;;24.27;13.00;;;;;;;;;;6251473;22;20057;-79
2024/01/20 01:19:07;;;;;;;23.85;13.32;;;;;;;;;;6271998;22;20003;-79
2024/01/20 01:21:52;;;;;;;24.15;13.98;;;;;;;;;;6269292;22;19999;-79
2024/01/20 01:24:38;;;;;;;26.15;14.68;;;;;;;;;;6269213;22;20082;-78
2024/01/20 01:27:23;;;;;;;24.13;14.20;;;;;;;;;;6271011;22;20003;-79
2024/01/20 01:30:08;;;;;;;23.50;13.88;;;;;;;;;;6270196;22;20527;-79
2024/01/20 01:32:54;;;;;;;24.17;13.85;;;;;;;;;;6263008;22;20358;-79
2024/01/20 01:35:39;;;;;;;22.52;12.60;;;;;;;;;;6265038;22;19996;-79
2024/01/20 01:38:24;;;;;;;27.05;14.05;;;;;;;;;;6268308;22;20037;-80
2024/01/20 01:41:09;;;;;;;23.38;14.32;;;;;;;;;;6266847;22;20060;-79
2024/01/20 01:43:54;;;;;;;26.80;15.20;;;;;;;;;;6266674;22;20431;-80
2024/01/20 01:46:40;;;;;;;27.23;14.63;;;;;;;;;;6270764;22;19999;-79
2024/01/20 01:49:26;;;;;;;25.58;14.38;;;;;;;;;;6269205;22;19991;-79
2024/01/20 01:52:11;;;;;;;28.60;16.65;;;;;;;;;;6271632;22;19999;-79
2024/01/20 01:54:57;;;;;;;25.40;15.05;;;;;;;;;;6270594;22;20347;-79
2024/01/20 01:57:42;;;;;;;23.85;13.82;;;;;;;;;;6269359;22;20003;-79
2024/01/20 02:00:28;;;;;;;25.27;14.68;;;;;;;;;;6269097;22;19999;-79
2024/01/20 02:03:13;;;;;;;24.10;13.40;;;;;;;;;;6271818;22;20003;-79
2024/01/20 02:05:59;;;;;;;26.58;14.63;;;;;;;;;;6268901;22;20432;-79
2024/01/20 02:08:44;;;;;;;22.95;13.50;;;;;;;;;;6265297;22;20078;-78
2024/01/20 02:11:29;;;;;;;22.98;14.13;;;;;;;;;;6263528;22;20023;-79
2024/01/20 02:14:15;;;;;;;22.50;13.05;;;;;;;;;;6266491;22;20033;-80
2024/01/20 02:17:00;;;;;;;31.15;15.80;;;;;;;;;;6266671;22;20052;-80
2024/01/20 02:19:46;;;;;;;24.27;14.75;;;;;;;;;;6265725;22;20000;-79
2024/01/20 02:22:31;;;;;;;23.95;13.02;;;;;;;;;;6266754;22;19995;-80
2024/01/20 02:25:16;;;;;;;26.92;14.77;;;;;;;;;;6271428;22;20011;-79
2024/01/20 02:28:01;;;;;;;29.90;16.83;;;;;;;;;;6272116;22;20041;-79
2024/01/20 02:30:47;;;;;;;26.67;16.50;;;;;;;;;;6269167;22;20483;-80
2024/01/20 02:33:32;;;;;;;32.10;16.23;;;;;;;;;;6268410;22;20003;-80
2024/01/20 02:36:17;;;;;;;27.63;15.85;;;;;;;;;;6271929;22;20011;-80
2024/01/20 02:39:03;;;;;;;26.73;15.30;;;;;;;;;;6271490;22;20014;-79
2024/01/20 02:41:48;;;;;;;31.70;17.15;;;;;;;;;;6269318;22;20030;-80
2024/01/20 02:44:34;;;;;;;30.42;16.15;;;;;;;;;;6269130;22;20003;-80
2024/01/20 02:47:19;;;;;;;28.55;15.13;;;;;;;;;;6247943;22;19995;-79
2024/01/20 02:50:05;;;;;;;28.02;15.90;;;;;;;;;;6264744;22;19995;-79
2024/01/20 02:52:53;;;;;;;30.48;16.05;;;;;;;;;;6264378;22;19999;-80
2024/01/20 02:55:38;;;;;;;28.50;16.58;;;;;;;;;;6264191;22;20045;-79
2024/01/20 02:58:24;;;;;;;29.45;17.15;;;;;;;;;;6244125;22;19995;-78
2024/01/20 03:01:09;;;;;;;28.67;16.65;;;;;;;;;;6253667;22;19996;-79
2024/01/20 03:03:54;;;;;;;29.88;16.02;;;;;;;;;;6274753;22;19991;-79
2024/01/20 03:06:40;;;;;;;28.33;14.50;;;;;;;;;;6275508;22;20052;-79
2024/01/20 03:09:25;;;;;;;28.10;15.70;;;;;;;;;;6274052;22;20049;-80
2024/01/20 03:12:10;;;;;;;28.92;15.85;;;;;;;;;;6274800;22;20019;-81
2024/01/20 03:15:15;;;;;;;27.40;15.32;;;;;;;;;;6277607;22;19995;-80
2024/01/20 03:18:00;;;;;;;28.13;15.60;;;;;;;;;;6254628;22;20003;-79
2024/01/20 03:20:45;;;;;;;30.05;16.75;;;;;;;;;;6275126;22;20213;-80
2024/01/20 03:23:31;;;;;;;27.67;15.68;;;;;;;;;;6275301;22;20010;-78
2024/01/20 03:26:16;;;;;;;32.88;15.90;;;;;;;;;;6274360;22;19995;-78
2024/01/20 03:29:01;;;;;;;25.42;16.13;;;;;;;;;;6269703;22;20003;-78
2024/01/20 03:31:47;;;;;;;28.98;16.30;;;;;;;;;;6269068;22;20030;-79
2024/01/20 03:34:32;;;;;;;26.67;15.43;;;;;;;;;;6270703;22;19995;-78
2024/01/20 03:37:17;;;;;;;27.30;16.13;;;;;;;;;;6274183;22;20009;-79
2024/01/20 03:40:02;;;;;;;29.58;15.02;;;;;;;;;;6276619;22;20007;-79
2024/01/20 03:42:48;;;;;;;26.23;15.00;;;;;;;;;;6274075;22;20014;-80
2024/01/20 03:45:33;;;;;;;27.75;15.52;;;;;;;;;;6275145;22;20000;-78
2024/01/20 03:48:18;;;;;;;28.77;15.30;;;;;;;;;;6276717;22;20003;-79
2024/01/20 03:51:03;;;;;;;27.55;15.02;;;;;;;;;;6273913;22;20090;-79
2024/01/20 03:53:49;;;;;;;27.60;15.65;;;;;;;;;;6270280;22;20007;-78
2024/01/20 03:56:40;;;;;;;25.35;13.60;;;;;;;;;;6270398;22;19991;-78
2024/01/20 03:59:25;;;;;;;28.30;15.73;;;;;;;;;;6260497;22;19996;-78
2024/01/20 04:02:11;;;;;;;24.23;13.73;;;;;;;;;;6274955;22;20094;-79
2024/01/20 04:04:56;;;;;;;27.75;14.25;;;;;;;;;;6274193;22;20006;-78
2024/01/20 04:07:42;;;;;;;25.17;12.18;;;;;;;;;;6271261;22;20014;-78
2024/01/20 04:10:27;;;;;;;26.70;13.48;;;;;;;;;;6262908;22;20068;-79
2024/01/20 04:13:13;;;;;;;24.17;14.18;;;;;;;;;;6250936;22;20027;-78
2024/01/20 04:15:58;;;;;;;25.90;14.38;;;;;;;;;;6273285;22;19999;-78
2024/01/20 04:18:43;;;;;;;23.40;13.80;;;;;;;;;;6269912;22;19999;-78
2024/01/20 04:21:28;;;;;;;30.23;15.55;;;;;;;;;;6267724;22;20003;-78
2024/01/20 04:24:13;;;;;;;26.05;15.00;;;;;;;;;;6265157;22;20074;-78
2024/01/20 04:26:59;;;;;;;25.02;13.95;;;;;;;;;;6265792;22;20074;-78
2024/01/20 04:29:44;;;;;;;21.92;12.52;;;;;;;;;;6265949;22;19996;-78
2024/01/20 04:32:29;;;;;;;22.30;13.98;;;;;;;;;;6265810;22;20060;-78
2024/01/20 04:35:14;;;;;;;21.17;12.32;;;;;;;;;;6263932;22;20000;-78
2024/01/20 04:37:59;;;;;;;23.48;12.73;;;;;;;;;;6273095;22;20078;-79
2024/01/20 04:40:45;;;;;;;26.20;14.55;;;;;;;;;;6272010;22;20056;-80
2024/01/20 04:43:30;;;;;;;24.27;13.98;;;;;;;;;;6268771;22;19999;-79
2024/01/20 04:46:15;;;;;;;23.85;12.75;;;;;;;;;;6273000;22;20371;-79
2024/01/20 04:49:01;;;;;;;21.25;13.00;;;;;;;;;;6271764;22;20006;-79
2024/01/20 04:51:46;;;;;;;23.42;13.52;;;;;;;;;;6269807;22;20345;-79
2024/01/20 04:54:31;;;;;;;24.30;13.32;;;;;;;;;;6269233;22;20003;-78
2024/01/20 04:57:16;;;;;;;24.83;14.73;;;;;;;;;;6272444;22;20003;-79
2024/01/20 05:00:02;;;;;;;23.70;14.55;;;;;;;;;;6272417;22;20000;-79
2024/01/20 05:02:47;;;;;;;24.25;13.82;;;;;;;;;;6267256;22;20711;-77
2024/01/20 05:05:32;;;;;;;25.52;15.00;;;;;;;;;;6264718;22;20041;-78
2024/01/20 05:08:18;;;;;;;23.67;13.10;;;;;;;;;;6265233;22;20022;-79
2024/01/20 05:11:03;;;;;;;30.73;15.50;;;;;;;;;;6265448;22;20003;-79
2024/01/20 05:13:48;;;;;;;29.10;13.38;;;;;;;;;;6265002;22;20023;-79
2024/01/20 05:16:34;;;;;;;22.90;13.48;;;;;;;;;;6265712;22;20006;-79
2024/01/20 05:19:19;;;;;;;25.05;12.95;;;;;;;;;;6264202;22;20328;-77
2024/01/20 05:22:04;;;;;;;26.50;13.68;;;;;;;;;;6271969;22;20747;-79
2024/01/20 05:24:49;;;;;;;23.63;13.70;;;;;;;;;;6271867;22;20014;-79
2024/01/20 05:27:34;;;;;;;22.63;13.30;;;;;;;;;;6269118;22;20003;-79
2024/01/20 05:30:20;;;;;;;24.77;15.07;;;;;;;;;;6271360;22;19999;-78
2024/01/20 05:33:06;;;;;;;25.90;14.20;;;;;;;;;;6271432;22;20343;-78
2024/01/20 05:35:56;;;;;;;23.27;13.73;;;;;;;;;;6269080;22;19999;-78
2024/01/20 05:38:41;;;;;;;25.42;14.73;;;;;;;;;;6266817;22;20056;-79
2024/01/20 05:41:26;;;;;;;27.73;13.80;;;;;;;;;;6267463;22;20010;-79
2024/01/20 05:44:12;;;;;;;26.60;14.23;;;;;;;;;;6264292;22;20094;-78
2024/01/20 05:46:57;;;;;;;28.80;14.93;;;;;;;;;;6269238;22;20007;-78
2024/01/20 05:49:42;;;;;;;26.25;14.60;;;;;;;;;;6266916;22;20048;-78
2024/01/20 05:52:27;;;;;;;28.30;15.10;;;;;;;;;;6269480;22;19999;-80
2024/01/20 05:55:13;;;;;;;24.20;14.43;;;;;;;;;;6271551;22;20029;-80
2024/01/20 05:57:58;;;;;;;25.70;15.55;;;;;;;;;;6271521;22;20009;-79
2024/01/20 06:00:43;;;;;;;27.52;14.75;;;;;;;;;;6269938;22;19999;-79
2024/01/20 06:03:28;;;;;;;25.83;15.02;;;;;;;;;;6268461;22;20060;-77
2024/01/20 06:06:14;;;;;;;30.50;16.20;;;;;;;;;;6271351;22;20007;-79
2024/01/20 06:08:59;;;;;;;25.02;15.20;;;;;;;;;;6270307;22;20473;-79
2024/01/20 06:11:44;;;;;;;27.35;16.17;;;;;;;;;;6269209;22;20011;-80
2024/01/20 06:14:29;;;;;;;28.02;16.02;;;;;;;;;;6247400;22;20330;-79
2024/01/20 06:17:18;;;;;;;27.33;15.00;;;;;;;;;;6267668;22;20423;-80
2024/01/20 06:20:03;;;;;;;24.55;13.93;;;;;;;;;;6243674;22;20015;-79
2024/01/20 06:22:48;;;;;;;26.65;15.07;;;;;;;;;;6264606;22;19999;-79
2024/01/20 06:25:34;;;;;;;31.83;16.00;;;;;;;;;;6265020;22;20003;-78
2024/01/20 06:28:19;;;;;;;30.25;15.73;;;;;;;;;;6264358;22;20007;-79
2024/01/20 06:31:04;;;;;;;28.17;15.48;;;;;;;;;;6269360;22;20517;-80
2024/01/20 06:33:50;;;;;;;25.40;15.43;;;;;;;;;;6270065;22;20379;-80
2024/01/20 06:36:35;;;;;;;27.15;15.95;;;;;;;;;;6268207;22;20115;-80
2024/01/20 06:39:20;;;;;;;24.08;14.32;;;;;;;;;;6271877;22;20041;-80
2024/01/20 06:42:06;;;;;;;29.05;15.75;;;;;;;;;;6271312;22;20053;-79
2024/01/20 06:44:51;;;;;;;28.27;15.98;;;;;;;;;;6269005;22;20002;-79
2024/01/20 06:47:37;;;;;;;27.55;14.18;;;;;;;;;;6271826;22;19999;-80
2024/01/20 06:50:22;;;;;;;26.42;14.40;;;;;;;;;;6273190;22;20070;-80
2024/01/20 06:53:07;;;;;;;27.08;14.75;;;;;;;;;;6270487;22;20031;-80
2024/01/20 06:55:52;;;;;;;25.40;15.45;;;;;;;;;;6266848;22;19996;-79
2024/01/20 06:58:38;;;;;;;23.63;13.57;;;;;;;;;;6266369;22;19996;-79
2024/01/20 07:01:23;;;;;;;31.38;17.13;;;;;;;;;;6269099;22;19995;-79
2024/01/20 07:04:08;;;;;;;28.00;16.17;;;;;;;;;;6266420;22;19995;-80
2024/01/20 07:06:54;;;;;;;30.77;15.13;;;;;;;;;;6270640;22;19999;-81
2024/01/20 07:09:42;;;;;;;28.33;14.75;;;;;;;;;;6273674;22;20049;-82
2024/01/20 07:12:27;;;;;;;27.40;15.35;;;;;;;;;;6271676;22;20372;-81
2024/01/20 07:15:12;;;;;;;25.85;15.43;;;;;;;;;;6272920;22;20443;-79
2024/01/20 07:17:57;;;;;;;27.27;15.57;;;;;;;;;;6273199;22;19999;-80
2024/01/20 07:20:43;;;;;;;26.48;15.07;;;;;;;;;;6271084;22;20003;-80
2024/01/20 07:23:29;;;;;;;28.85;16.55;;;;;;;;;;6270569;22;20003;-81
2024/01/20 07:26:15;;;;;;;25.50;14.15;;;;;;;;;;6272452;22;20389;-80
2024/01/20 07:29:00;;;;;;;26.88;15.57;;;;;;;;;;6273076;22;20021;-80
2024/01/20 07:31:45;;;;;;;27.83;15.18;;;;;;;;;;6271583;22;20086;-80
2024/01/20 07:34:31;;;;;;;27.90;16.20;;;;;;;;;;6272754;22;19995;-79
2024/01/20 07:37:16;;;;;;;26.15;14.98;;;;;;;;;;6269829;22;20052;-80
2024/01/20 07:40:02;;;;;;;27.17;14.27;;;;;;;;;;6267129;22;20007;-81
2024/01/20 07:42:48;;;;;;;30.23;17.55;;;;;;;;;;6267997;22;20010;-81
2024/01/20 07:45:33;;;;;;;24.92;15.23;;;;;;;;;;6267971;22;20002;-81
2024/01/20 07:48:18;;;;;;;29.52;15.27;;;;;;;;;;6266479;22;20006;-80
2024/01/20 07:51:04;;;;;;;30.65;15.63;;;;;;;;;;6269101;22;20049;-80
2024/01/20 07:53:49;;;;;;;29.70;16.00;;;;;;;;;;6273195;22;20003;-81
2024/01/20 07:56:34;;;;;;;23.90;13.13;;;;;;;;;;6271104;22;19999;-80
2024/01/20 07:59:19;;;;;;;31.65;18.13;;;;;;;;;;6270283;22;19995;-80
2024/01/20 08:02:05;;;;;;;26.60;15.50;;;;;;;;;;6271477;22;20037;-79
2024/01/20 08:04:50;;;;;;;30.42;15.73;;;;;;;;;;6272211;22;19999;-80
2024/01/20 08:07:36;;;;;;;28.98;14.32;;;;;;;;;;6270063;22;20015;-80
2024/01/20 08:10:21;;;;;;;27.23;15.32;;;;;;;;;;6251075;22;20003;-80
2024/01/20 08:13:06;;;;;;;29.15;15.45;;;;;;;;;;6247938;22;20058;-80
2024/01/20 08:15:51;;;;;;;29.38;17.20;;;;;;;;;;6238764;22;19992;-80
2024/01/20 08:18:37;;;;;;;30.50;15.98;;;;;;;;;;6241193;22;20003;-80
2024/01/20 08:21:22;;;;;;;30.30;15.93;;;;;;;;;;6240402;22;19995;-81
2024/01/20 08:24:07;;;;;;;31.17;18.67;;;;;;;;;;6234941;22;20003;-80
2024/01/20 08:26:53;;;;;;;28.48;15.88;;;;;;;;;;6236411;22;20014;-80
2024/01/20 08:29:38;;;;;;;29.10;16.00;;;;;;;;;;6236390;22;19998;-79
2024/01/20 08:32:23;;;;;;;29.90;16.17;;;;;;;;;;6235027;22;19995;-79
2024/01/20 08:35:09;;;;;;;27.77;16.42;;;;;;;;;;6240775;22;20004;-80
2024/01/20 08:37:54;;;;;;;29.42;16.08;;;;;;;;;;6240828;22;20007;-79
2024/01/20 08:40:40;;;;;;;31.75;17.58;;;;;;;;;;6239301;22;20000;-79
2024/01/20 08:43:25;;;;;;;33.85;17.35;;;;;;;;;;6242035;22;20083;-80
2024/01/20 08:46:10;;;;;;;29.08;16.33;;;;;;;;;;6241301;22;20003;-79
2024/01/20 08:48:55;;;;;;;37.85;17.70;;;;;;;;;;6241347;22;20007;-79
2024/01/20 08:51:41;;;;;;;31.52;17.13;;;;;;;;;;6229760;22;20006;-77
2024/01/20 08:54:26;;;;;;;31.38;15.85;;;;;;;;;;6244129;22;20039;-79
2024/01/20 08:57:11;;;;;;;29.23;16.05;;;;;;;;;;6239377;22;20006;-79
2024/01/20 08:59:57;;;;;;;29.90;16.38;;;;;;;;;;6243838;22;20008;-79
2024/01/20 09:02:45;;;;;;;29.02;15.65;;;;;;;;;;6247274;22;20098;-79
2024/01/20 09:05:30;;;;;;;29.58;16.20;;;;;;;;;;6241273;22;20011;-77
2024/01/20 09:08:16;;;;;;;29.73;15.35;;;;;;;;;;6249074;22;20030;-79
2024/01/20 09:11:01;;;;;;;28.75;17.08;;;;;;;;;;6242946;22;20004;-80
2024/01/20 09:13:46;;;;;;;31.50;17.30;;;;;;;;;;6243953;22;20019;-79
2024/01/20 09:16:32;;;;;;;30.38;16.75;;;;;;;;;;6239595;22;20007;-79
2024/01/20 09:19:20;;;;;;;31.33;17.17;;;;;;;;;;6242589;22;20000;-86
2024/01/20 09:22:05;;;;;;;29.95;17.13;;;;;;;;;;6250306;22;20047;-79
2024/01/20 09:24:52;;;;;;;33.92;17.77;;;;;;;;;;6236944;22;20417;-78
2024/01/20 09:27:37;;;;;;;34.65;18.52;;;;;;;;;;6234200;22;20004;-77
2024/01/20 09:30:23;;;;;;;28.77;17.27;;;;;;;;;;6236792;22;19996;-77
2024/01/20 09:33:08;;;;;;;28.25;17.17;;;;;;;;;;6234001;22;20022;-78
2024/01/20 09:35:53;;;;;;;33.40;17.02;;;;;;;;;;6236126;22;20019;-79
2024/01/20 09:38:38;;;;;;;35.67;17.95;;;;;;;;;;6237695;22;20075;-80
2024/01/20 09:41:24;;;;;;;30.00;18.33;;;;;;;;;;6240823;22;20368;-79
2024/01/20 09:44:12;;;;;;;27.10;16.90;;;;;;;;;;6239410;22;20365;-80
2024/01/20 09:46:57;;;;;;;29.10;15.88;;;;;;;;;;6219572;22;19996;-78
2024/01/20 09:49:42;;;;;;;30.77;16.65;;;;;;;;;;6239133;22;20027;-80
2024/01/20 09:52:29;;;;;;;31.90;18.33;;;;;;;;;;6238037;22;19999;-81
2024/01/20 09:55:18;;;;;;;29.08;16.15;;;;;;;;;;6235328;22;19995;-79
2024/01/20 09:58:04;;;;;;;28.20;16.95;;;;;;;;;;6234610;22;20006;-80
2024/01/20 10:00:53;;;;;;;29.90;17.52;;;;;;;;;;6235317;22;20057;-79
2024/01/20 10:03:39;;;;;;;26.88;15.13;;;;;;;;;;6234661;22;20007;-80
2024/01/20 10:06:26;;;;;;;29.65;17.38;;;;;;;;;;6234238;22;19996;-80
2024/01/20 10:09:12;;;;;;;29.48;15.73;;;;;;;;;;6240656;22;20004;-79
2024/01/20 10:11:58;;;;;;;31.33;16.83;;;;;;;;;;6250375;22;20011;-80
2024/01/20 10:14:44;;;;;;;28.75;16.63;;;;;;;;;;6271883;22;20002;-79
2024/01/20 10:17:29;;;;;;;27.60;16.35;;;;;;;;;;6268371;22;20000;-80
2024/01/20 10:20:20;;;;;;;29.95;17.38;;;;;;;;;;6272278;22;20029;-79
2024/01/20 10:23:06;;;;;;;28.02;16.45;;;;;;;;;;6270946;22;20007;-78
2024/01/20 10:26:02;;;;;;;29.25;16.63;;;;;;;;;;6269054;22;20448;-79
2024/01/20 10:28:47;;;;;;;29.60;18.17;;;;;;;;;;6269638;22;19995;-79
2024/01/20 10:31:32;;;;;;;32.58;19.05;;;;;;;;;;6268547;22;20053;-79
2024/01/20 10:34:19;;;;;;;30.73;16.75;;;;;;;;;;6271238;22;20518;-84
2024/01/20 10:37:07;;;;;;;30.27;18.08;;;;;;;;;;6265579;22;20007;-82
2024/01/20 10:39:54;;;;;;;28.33;15.57;;;;;;;;;;6261799;22;20034;-76
2024/01/20 10:42:44;;;;;;;30.30;17.10;;;;;;;;;;6263542;22;20443;-78
2024/01/20 10:45:33;;;;;;;29.85;16.83;;;;;;;;;;6264227;22;20000;-80
2024/01/20 10:48:20;;;;;;;31.80;16.45;;;;;;;;;;6266381;22;20030;-78
2024/01/20 10:51:07;;;;;;;30.92;17.60;;;;;;;;;;6264240;22;19991;-78
2024/01/20 10:53:56;;;;;;;31.50;18.30;;;;;;;;;;6264348;22;20030;-78
2024/01/20 10:56:44;;;;;;;34.40;18.67;;;;;;;;;;6264557;22;20035;-83
2024/01/20 10:59:30;;;;;;;32.90;18.00;;;;;;;;;;6264695;22;19999;-83
2024/01/20 11:02:16;;;;;;;28.23;16.63;;;;;;;;;;6264647;22;20003;-83
2024/01/20 11:05:02;;;;;;;30.58;17.80;;;;;;;;;;6265871;22;20007;-82
2024/01/20 11:07:54;;;;;;;27.52;17.13;;;;;;;;;;6270818;22;19995;-81
2024/01/20 11:10:43;;;;;;;27.70;16.85;;;;;;;;;;6268846;22;20000;-78
2024/01/20 11:13:28;;;;;;;28.87;16.37;;;;;;;;;;6270896;22;20450;-77
2024/01/20 11:16:20;;;;;;;29.23;17.35;;;;;;;;;;6271789;22;20217;-80
2024/01/20 11:19:06;;;;;;;27.75;15.20;;;;;;;;;;6264169;22;20002;-79
2024/01/20 11:21:51;;;;;;;31.20;15.77;;;;;;;;;;6265026;22;20018;-79
2024/01/20 11:24:41;;;;;;;26.10;16.35;;;;;;;;;;6264846;22;19996;-78
2024/01/20 11:27:26;;;;;;;23.23;14.30;;;;;;;;;;6266387;22;20006;-78
2024/01/20 11:30:12;;;;;;;23.65;14.43;;;;;;;;;;6265086;22;20411;-77
2024/01/20 11:32:57;;;;;;;29.02;14.73;;;;;;;;;;6271030;22;20074;-77
2024/01/20 11:35:43;;;;;;;26.33;15.23;;;;;;;;;;6272867;22;20049;-77
2024/01/20 11:38:28;;;;;;;25.42;14.35;;;;;;;;;;6274029;22;20324;-87
2024/01/20 11:41:16;;;;;;;23.23;14.90;;;;;;;;;;6275107;22;20302;-88
2024/01/20 11:44:01;;;;;;;24.52;15.38;;;;;;;;;;6274812;22;20402;-85
2024/01/20 11:46:47;;;;;;;22.70;13.30;;;;;;;;;;6271817;22;20003;-83
2024/01/20 11:49:34;;;;;;;31.30;14.75;;;;;;;;;;6271553;22;20384;-82
2024/01/20 11:52:19;;;;;;;27.15;16.48;;;;;;;;;;6269131;22;19995;-79
2024/01/20 11:55:04;;;;;;;23.45;14.85;;;;;;;;;;6265433;22;20083;-79
2024/01/20 11:57:49;;;;;;;21.95;13.38;;;;;;;;;;6243823;22;20359;-79
2024/01/20 12:00:34;;;;;;;25.50;15.40;;;;;;;;;;6267094;22;20022;-79
2024/01/20 12:03:21;;;;;;;24.83;15.23;;;;;;;;;;6246489;22;20082;-80
2024/01/20 12:06:07;;;;;;;26.35;14.68;;;;;;;;;;6268871;22;20006;-80
2024/01/20 12:08:55;;;;;;;21.67;14.15;;;;;;;;;;6272666;22;20003;-80
2024/01/20 12:11:40;;;;;;;23.05;13.90;;;;;;;;;;6269831;22;20656;-82
2024/01/20 12:14:26;;;;;;;24.33;13.95;;;;;;;;;;6270567;22;19991;-81
2024/01/20 12:17:13;;;;;;;24.10;13.63;;;;;;;;;;6272289;22;20007;-81
2024/01/20 12:19:58;;;;;;;26.08;14.60;;;;;;;;;;6272451;22;19995;-81
2024/01/20 12:22:43;;;;;;;22.08;12.93;;;;;;;;;;6269216;22;20010;-81
2024/01/20 12:25:29;;;;;;;24.10;14.32;;;;;;;;;;6271116;22;19995;-80
2024/01/20 12:28:15;;;;;;;25.20;13.82;;;;;;;;;;6272232;22;20082;-80
2024/01/20 12:31:01;;;;;;;24.33;14.75;;;;;;;;;;6272363;22;20003;-81
2024/01/20 12:33:46;;;;;;;23.60;13.55;;;;;;;;;;6269359;22;20032;-81
2024/01/20 12:36:31;;;;;;;24.67;15.40;;;;;;;;;;6266670;22;20041;-81
2024/01/20 12:39:17;;;;;;;26.05;16.52;;;;;;;;;;6265526;22;19999;-80
2024/01/20 12:42:02;;;;;;;30.50;16.42;;;;;;;;;;6267508;22;20462;-80
2024/01/20 12:44:47;;;;;;;26.80;15.40;;;;;;;;;;6269914;22;20056;-82
2024/01/20 12:47:35;;;;;;;30.63;17.20;;;;;;;;;;6269602;22;20361;-84
2024/01/20 12:50:21;;;;;;;25.42;15.45;;;;;;;;;;6271817;22;20006;-81
2024/01/20 12:53:06;;;;;;;32.92;17.92;;;;;;;;;;6271895;22;20027;-81
2024/01/20 12:55:52;;;;;;;28.92;16.98;;;;;;;;;;6270327;22;19991;-81
2024/01/20 12:58:37;;;;;;;26.58;14.95;;;;;;;;;;6270529;22;20045;-82
2024/01/20 13:01:23;;;;;;;26.83;14.98;;;;;;;;;;6271749;22;20374;-82
2024/01/20 13:04:18;;;;;;;25.13;15.18;;;;;;;;;;6272080;22;19995;-82
2024/01/20 13:07:03;;;;;;;27.13;16.95;;;;;;;;;;6268856;22;20046;-83
2024/01/20 13:09:48;;;;;;;31.70;16.70;;;;;;;;;;6244850;22;20591;-81
2024/01/20 13:12:34;;;;;;;27.05;15.80;;;;;;;;;;6264684;22;20023;-83
2024/01/20 13:15:23;;;;;;;31.33;16.92;;;;;;;;;;6266378;22;19996;-81
2024/01/20 13:18:08;;;;;;;26.33;15.45;;;;;;;;;;6266009;22;20031;-80
2024/01/20 13:20:54;;;;;;;28.67;14.90;;;;;;;;;;6267253;22;20462;-83
2024/01/20 13:23:39;;;;;;;25.80;15.30;;;;;;;;;;6272337;22;19999;-83
2024/01/20 13:26:24;;;;;;;25.88;16.00;;;;;;;;;;6269678;22;20014;-82
2024/01/20 13:29:11;;;;;;;28.88;15.13;;;;;;;;;;6272874;22;19996;-83
2024/01/20 13:31:59;;;;;;;25.05;15.40;;;;;;;;;;6272250;22;19992;-82
2024/01/20 13:34:45;;;;;;;33.53;17.10;;;;;;;;;;6270343;22;20089;-82
2024/01/20 13:37:30;;;;;;;28.58;15.07;;;;;;;;;;6270594;22;20062;-82
2024/01/20 13:40:15;;;;;;;36.65;16.65;;;;;;;;;;6272233;22;20078;-82
2024/01/20 13:43:00;;;;;;;38.92;18.38;;;;;;;;;;6271970;22;20086;-82
2024/01/20 13:45:46;;;;;;;26.08;14.68;;;;;;;;;;6269199;22;20003;-82
2024/01/20 13:48:31;;;;;;;26.30;14.80;;;;;;;;;;6269768;22;20033;-82
2024/01/20 13:51:17;;;;;;;25.17;15.20;;;;;;;;;;6266747;22;20003;-82
2024/01/20 13:54:02;;;;;;;26.52;15.15;;;;;;;;;;6265680;22;20003;-82
2024/01/20 13:56:48;;;;;;;29.13;15.32;;;;;;;;;;6264364;22;20013;-82
2024/01/20 13:59:34;;;;;;;28.05;15.38;;;;;;;;;;6265241;22;19991;-81
2024/01/20 14:02:19;;;;;;;33.35;16.30;;;;;;;;;;6269911;22;20101;-81
2024/01/20 14:05:05;;;;;;;27.15;14.93;;;;;;;;;;6271324;22;20083;-81
2024/01/20 14:07:50;;;;;;;26.73;14.55;;;;;;;;;;6271387;22;20006;-82
2024/01/20 14:10:36;;;;;;;24.05;14.63;;;;;;;;;;6269581;22;19998;-82
2024/01/20 14:13:21;;;;;;;24.15;13.23;;;;;;;;;;6271015;22;20046;-82
2024/01/20 14:16:06;;;;;;;24.23;14.57;;;;;;;;;;6271810;22;19995;-82
2024/01/20 14:18:52;;;;;;;26.23;15.25;;;;;;;;;;6269346;22;20623;-80
2024/01/20 14:21:37;;;;;;;26.48;14.27;;;;;;;;;;6270038;22;19995;-81
2024/01/20 14:24:22;;;;;;;25.73;14.50;;;;;;;;;;6271352;22;20002;-80
2024/01/20 14:27:08;;;;;;;26.48;14.07;;;;;;;;;;6269453;22;20075;-80
2024/01/20 14:29:54;;;;;;;27.17;13.48;;;;;;;;;;6264652;22;19999;-80
2024/01/20 14:32:39;;;;;;;22.85;13.75;;;;;;;;;;6264867;22;19992;-80
2024/01/20 14:35:28;;;;;;;23.35;13.15;;;;;;;;;;6267937;22;19991;-83
2024/01/20 14:38:14;;;;;;;21.88;13.45;;;;;;;;;;6264960;22;20449;-80
2024/01/20 14:40:59;;;;;;;22.45;13.23;;;;;;;;;;6271256;22;20006;-80
2024/01/20 14:43:45;;;;;;;22.50;12.88;;;;;;;;;;6268509;22;20006;-80
2024/01/20 14:46:32;;;;;;;23.92;12.95;;;;;;;;;;6268183;22;20061;-81
2024/01/20 14:49:17;;;;;;;24.67;14.10;;;;;;;;;;6270488;22;19995;-81
2024/01/20 14:52:03;;;;;;;24.55;14.05;;;;;;;;;;6266263;22;19999;-80
2024/01/20 14:54:49;;;;;;;25.02;13.85;;;;;;;;;;6266099;22;20000;-81
2024/01/20 14:57:34;;;;;;;24.10;13.65;;;;;;;;;;6268352;22;19998;-80
2024/01/20 15:00:19;;;;;;;26.70;15.55;;;;;;;;;;6269871;22;20081;-81
2024/01/20 15:03:05;;;;;;;28.35;14.55;;;;;;;;;;6270236;22;20003;-80
2024/01/20 15:05:50;;;;;;;26.00;14.18;;;;;;;;;;6267919;22;19999;-79
2024/01/20 15:08:35;;;;;;;27.27;13.98;;;;;;;;;;6269606;22;20003;-80
2024/01/20 15:11:21;;;;;;;25.98;14.02;;;;;;;;;;6271582;22;20046;-79
2024/01/20 15:14:09;;;;;;;22.02;12.77;;;;;;;;;;6271758;22;20034;-79
2024/01/20 15:16:54;;;;;;;24.08;14.25;;;;;;;;;;6267853;22;20359;-80
2024/01/20 15:19:40;;;;;;;25.13;14.68;;;;;;;;;;6267678;22;20003;-80
2024/01/20 15:22:26;;;;;;;24.77;14.63;;;;;;;;;;6272678;22;20305;-79
2024/01/20 15:25:12;;;;;;;25.60;13.60;;;;;;;;;;6272098;22;19995;-79
2024/01/20 15:27:58;;;;;;;22.80;13.48;;;;;;;;;;6273376;22;20034;-79
2024/01/20 15:30:43;;;;;;;25.40;14.38;;;;;;;;;;6266216;22;19991;-82
2024/01/20 15:33:28;;;;;;;30.70;15.20;;;;;;;;;;6265681;22;19998;-77
2024/01/20 15:36:17;;;;;;;26.65;14.68;;;;;;;;;;6264902;22;20002;-82
2024/01/20 15:39:03;;;;;;;26.77;14.70;;;;;;;;;;6271067;22;20313;-78
2024/01/20 15:41:48;;;;;;;28.73;14.60;;;;;;;;;;6271774;22;19995;-77
2024/01/20 15:44:34;;;;;;;28.60;15.07;;;;;;;;;;6269230;22;20481;-77
2024/01/20 15:47:19;;;;;;;31.85;17.08;;;;;;;;;;6271101;22;20292;-77
2024/01/20 15:50:04;;;;;;;26.83;15.85;;;;;;;;;;6270717;22;20002;-77
2024/01/20 15:52:49;;;;;;;27.38;13.93;;;;;;;;;;6269464;22;20432;-77
2024/01/20 15:55:34;;;;;;;25.10;13.93;;;;;;;;;;6269759;22;19999;-79
2024/01/20 15:58:20;;;;;;;28.88;14.90;;;;;;;;;;6271606;22;20026;-79
2024/01/20 16:01:05;;;;;;;27.63;16.55;;;;;;;;;;6271245;22;20026;-77
2024/01/20 16:03:50;;;;;;;26.70;16.58;;;;;;;;;;6264476;22;20032;-79